Time;durP1;ratioP1;P1;durP2;ratioP2;P2;SDS_P1;SDS_P2;PMS_P1;PMS_P2;Temp;Humidity;BMP_temperature;BMP_pressure;BME280_temperature;BME280_humidity;BME280_pressure;Samples;Min_cycle;Max_cycle;Signal;HPM_P1;HPM_P2
2023/04/15 00:00:43;;;;;;;;;;;;;;;;;;4990385;28;19913;-43
2023/04/15 05:10:26;;;;;;;;;;;;;;;;;;5010226;28;19963;-45
2023/04/15 05:12:52;;;;;;;;;;;;;;;;;;5030085;28;19909;-44
2023/04/15 05:15:18;;;;;;;;;;;;;;;;;;5011264;28;20376;-45
2023/04/15 05:17:44;;;;;;;;;;;;;;;;;;5010092;28;19964;-44
2023/04/15 05:20:10;;;;;;;;;;;;;;;;;;5009795;28;19968;-45
2023/04/15 05:22:36;;;;;;;;;;;;;;;;;;5010094;28;19913;-44
2023/04/15 05:25:02;;;;;;;;;;;;;;;;;;5009949;28;20381;-46
2023/04/15 05:27:28;;;;;;;;;;;;;;;;;;5010107;28;19916;-43
2023/04/15 05:29:55;;;;;;;;;;;;;;;;;;5010027;28;19913;-46
2023/04/15 05:32:21;;;;;;;;;;;;;;;;;;5009975;28;19963;-44
2023/04/15 05:34:47;;;;;;;;;;;;;;;;;;5010123;28;19905;-44
2023/04/15 05:37:13;;;;;;;;;;;;;;;;;;5010011;28;19909;-44
2023/04/15 05:39:38;;;;;;;;;;;;;;;;;;5009367;28;19936;-43
2023/04/15 05:42:05;;;;;;;;;;;;;;;;;;5008578;28;19913;-44
2023/04/15 05:44:30;;;;;;;;;;;;;;;;;;5008765;28;19913;-43
2023/04/15 05:46:56;;;;;;;;;;;;;;;;;;5010486;28;19917;-43
2023/04/15 05:49:22;;;;;;;;;;;;;;;;;;5010583;28;19909;-43
2023/04/15 05:51:48;;;;;;;;;;;;;;;;;;5009925;28;20075;-44
2023/04/15 05:54:15;;;;;;;;;;;;;;;;;;5010652;28;19913;-44
2023/04/15 05:56:40;;;;;;;;;;;;;;;;;;5010751;28;20898;-44
2023/04/15 05:59:07;;;;;;;;;;;;;;;;;;5010120;28;19924;-44
2023/04/15 06:01:34;;;;;;;;;;;;;;;;;;5010736;28;19915;-45
2023/04/15 06:04:00;;;;;;;;;;;;;;;;;;5010810;28;20004;-47
2023/04/15 06:06:27;;;;;;;;;;;;;;;;;;5010421;28;19906;-44
2023/04/15 06:08:54;;;;;;;;;;;;;;;;;;5010518;28;19909;-46
2023/04/15 06:11:20;;;;;;;;;;;;;;;;;;4999638;28;19913;-47
2023/04/15 06:13:46;;;;;;;;;;;;;;;;;;4990758;28;19916;-45
2023/04/15 06:16:12;;;;;;;;;;;;;;;;;;4991091;28;20540;-43
2023/04/15 06:18:39;;;;;;;;;;;;;;;;;;4990918;28;19918;-45
2023/04/15 06:21:05;;;;;;;;;;;;;;;;;;4991054;28;20300;-46
2023/04/15 06:23:30;;;;;;;;;;;;;;;;;;4990962;28;19965;-47
2023/04/15 06:25:56;;;;;;;;;;;;;;;;;;4990694;28;19910;-43
2023/04/15 06:28:22;;;;;;;;;;;;;;;;;;4990385;28;19960;-46
2023/04/15 06:30:48;;;;;;;;;;;;;;;;;;4989941;28;19917;-45
2023/04/15 06:33:14;;;;;;;;;;;;;;;;;;4972974;28;20009;-44
2023/04/15 06:35:40;;;;;;;;;;;;;;;;;;4989447;28;19910;-47
2023/04/15 06:38:06;;;;;;;;;;;;;;;;;;4989033;28;19914;-44
2023/04/15 06:40:33;;;;;;;;;;;;;;;;;;4988841;28;20001;-44
2023/04/15 06:42:59;;;;;;;;;;;;;;;;;;4988834;28;20460;-44
2023/04/15 06:45:25;;;;;;;;;;;;;;;;;;4988828;28;19996;-44
2023/04/15 06:47:51;;;;;;;;;;;;;;;;;;4989303;28;20404;-44
2023/04/15 06:50:17;;;;;;;;;;;;;;;;;;4986142;28;20266;-45
2023/04/15 06:52:43;;;;;;;;;;;;;;;;;;4989764;28;20047;-44
2023/04/15 06:55:09;;;;;;;;;;;;;;;;;;4989577;28;19956;-43
2023/04/15 06:57:35;;;;;;;;;;;;;;;;;;4989482;28;19921;-45
2023/04/15 07:00:01;;;;;;;;;;;;;;;;;;4988552;28;19910;-45
2023/04/15 07:02:27;;;;;;;;;;;;;;;;;;4976031;28;19964;-44
2023/04/15 07:04:53;;;;;;;;;;;;;;;;;;4971439;28;19968;-45
2023/04/15 07:07:19;;;;;;;;;;;;;;;;;;4972031;28;20023;-43
2023/04/15 07:09:46;;;;;;;;;;;;;;;;;;4971606;28;19911;-47
2023/04/15 07:12:12;;;;;;;;;;;;;;;;;;4994719;28;19979;-44
2023/04/15 07:14:38;;;;;;;;;;;;;;;;;;5010625;28;19909;-45
2023/04/15 07:17:04;;;;;;;;;;;;;;;;;;4991086;28;19921;-43
2023/04/15 07:19:29;;;;;;;;;;;;;;;;;;4990505;28;19957;-44
2023/04/15 07:21:55;;;;;;;;;;;;;;;;;;4990703;28;19960;-46
2023/04/15 07:24:25;;;;;;;;;;;;;;;;;;4990749;28;19913;-43
2023/04/15 07:26:51;;;;;;;;;;;;;;;;;;4990825;28;19906;-45
2023/04/15 07:29:17;;;;;;;;;;;;;;;;;;4979313;28;19910;-44
2023/04/15 07:31:43;;;;;;;;;;;;;;;;;;4979777;28;19936;-46
2023/04/15 07:34:09;;;;;;;;;;;;;;;;;;4990122;28;19913;-45
2023/04/15 07:36:35;;;;;;;;;;;;;;;;;;4990520;28;19941;-44
2023/04/15 07:39:02;;;;;;;;;;;;;;;;;;4985379;28;19957;-44
2023/04/15 07:41:28;;;;;;;;;;;;;;;;;;4989950;28;20344;-44
2023/04/15 07:43:54;;;;;;;;;;;;;;;;;;4990283;28;19913;-44
2023/04/15 07:46:21;;;;;;;;;;;;;;;;;;4990906;28;20008;-44
2023/04/15 07:48:47;;;;;;;;;;;;;;;;;;4996671;28;19914;-42
2023/04/15 07:51:12;;;;;;;;;;;;;;;;;;4990372;28;19906;-44
2023/04/15 07:53:38;;;;;;;;;;;;;;;;;;4990382;28;20004;-43
2023/04/15 07:56:04;;;;;;;;;;;;;;;;;;4990372;28;19905;-43
2023/04/15 07:58:30;;;;;;;;;;;;;;;;;;4992336;28;19914;-44
2023/04/15 08:00:56;;;;;;;;;;;;;;;;;;4985214;28;20061;-45
2023/04/15 08:03:22;;;;;;;;;;;;;;;;;;4984190;28;19964;-45
2023/04/15 08:05:48;;;;;;;;;;;;;;;;;;4990661;28;19940;-46
2023/04/15 08:08:14;;;;;;;;;;;;;;;;;;4984262;28;19921;-44
2023/04/15 08:10:40;;;;;;;;;;;;;;;;;;4979381;28;20016;-45
2023/04/15 08:13:06;;;;;;;;;;;;;;;;;;4979808;28;19921;-44
2023/04/15 08:15:32;;;;;;;;;;;;;;;;;;4974826;28;19910;-46
2023/04/15 08:17:59;;;;;;;;;;;;;;;;;;4974408;28;19918;-46
2023/04/15 08:20:25;;;;;;;;;;;;;;;;;;4974454;28;19992;-43
2023/04/15 08:22:52;;;;;;;;;;;;;;;;;;4974463;28;20008;-44
2023/04/15 08:25:21;;;;;;;;;;;;;;;;;;4974831;28;19921;-44
2023/04/15 08:27:47;;;;;;;;;;;;;;;;;;4974649;28;20437;-48
2023/04/15 08:30:14;;;;;;;;;;;;;;;;;;4974406;28;19910;-46
2023/04/15 08:32:40;;;;;;;;;;;;;;;;;;4974279;28;19906;-45
2023/04/15 08:35:06;;;;;;;;;;;;;;;;;;4974396;28;19973;-47
2023/04/15 08:37:32;;;;;;;;;;;;;;;;;;4974243;28;19906;-45
2023/04/15 08:39:58;;;;;;;;;;;;;;;;;;4980088;28;20016;-44
2023/04/15 08:42:24;;;;;;;;;;;;;;;;;;4992922;28;19917;-43
2023/04/15 08:44:50;;;;;;;;;;;;;;;;;;4993829;28;19976;-46
2023/04/15 08:47:16;;;;;;;;;;;;;;;;;;4993580;28;19941;-45
2023/04/15 08:49:42;;;;;;;;;;;;;;;;;;4990717;28;19916;-43
2023/04/15 08:52:09;;;;;;;;;;;;;;;;;;4987746;28;19913;-43
2023/04/15 08:54:36;;;;;;;;;;;;;;;;;;4983331;28;19910;-45
2023/04/15 08:57:02;;;;;;;;;;;;;;;;;;4974518;28;19989;-44
2023/04/15 08:59:28;;;;;;;;;;;;;;;;;;4991991;28;19925;-44
2023/04/15 09:01:54;;;;;;;;;;;;;;;;;;4992036;28;20327;-46
2023/04/15 09:04:20;;;;;;;;;;;;;;;;;;4992310;28;19909;-47
2023/04/15 09:06:46;;;;;;;;;;;;;;;;;;4992319;28;19913;-45
2023/04/15 09:09:13;;;;;;;;;;;;;;;;;;4991889;28;19912;-44
2023/04/15 09:11:40;;;;;;;;;;;;;;;;;;4991699;28;20404;-43
2023/04/15 09:14:06;;;;;;;;;;;;;;;;;;4991948;28;19910;-45
2023/04/15 09:16:32;;;;;;;;;;;;;;;;;;4991832;28;19905;-48
2023/04/15 09:18:59;;;;;;;;;;;;;;;;;;4991577;28;19920;-45
2023/04/15 09:21:25;;;;;;;;;;;;;;;;;;4990816;28;19917;-45
2023/04/15 09:23:51;;;;;;;;;;;;;;;;;;4991974;28;19905;-44
2023/04/15 09:26:17;;;;;;;;;;;;;;;;;;4997984;28;19905;-44
2023/04/15 09:28:42;;;;;;;;;;;;;;;;;;5011267;28;19947;-48
2023/04/15 09:31:09;;;;;;;;;;;;;;;;;;5010953;28;19933;-45
2023/04/15 09:33:36;;;;;;;;;;;;;;;;;;5011061;28;19912;-45
2023/04/15 09:36:02;;;;;;;;;;;;;;;;;;5011108;28;19971;-44
2023/04/15 09:38:28;;;;;;;;;;;;;;;;;;5011019;28;19932;-46
2023/04/15 09:40:54;;;;;;;;;;;;;;;;;;5005107;28;19932;-44
2023/04/15 09:43:20;;;;;;;;;;;;;;;;;;4993392;28;19916;-48
2023/04/15 09:45:46;;;;;;;;;;;;;;;;;;4991316;28;19916;-45
2023/04/15 09:48:12;;;;;;;;;;;;;;;;;;4991149;28;19910;-45
2023/04/15 09:50:37;;;;;;;;;;;;;;;;;;4991023;28;20420;-47
2023/04/15 09:53:03;;;;;;;;;;;;;;;;;;4986737;28;19930;-44
2023/04/15 09:55:29;;;;;;;;;;;;;;;;;;4973916;28;19916;-47
2023/04/15 09:57:55;;;;;;;;;;;;;;;;;;4991381;28;19909;-45
2023/04/15 10:00:21;;;;;;;;;;;;;;;;;;4988887;28;20392;-44
2023/04/15 10:02:48;;;;;;;;;;;;;;;;;;4991158;28;19913;-45
2023/04/15 10:05:16;;;;;;;;;;;;;;;;;;4991053;28;19910;-46
2023/04/15 10:07:42;;;;;;;;;;;;;;;;;;4990906;28;19913;-45
2023/04/15 10:10:08;;;;;;;;;;;;;;;;;;4988452;28;19916;-47
2023/04/15 10:12:34;;;;;;;;;;;;;;;;;;4975120;28;20591;-44
2023/04/15 10:15:00;;;;;;;;;;;;;;;;;;4988351;28;19918;-47
2023/04/15 10:17:28;;;;;;;;;;;;;;;;;;4993387;28;19909;-43
2023/04/15 10:19:54;;;;;;;;;;;;;;;;;;4990552;28;20385;-44
2023/04/15 10:22:20;;;;;;;;;;;;;;;;;;4991017;28;19955;-45
2023/04/15 10:24:46;;;;;;;;;;;;;;;;;;4990859;28;19918;-43
2023/04/15 10:27:12;;;;;;;;;;;;;;;;;;4989623;28;19909;-44
2023/04/15 10:29:38;;;;;;;;;;;;;;;;;;4990225;28;19910;-46
2023/04/15 10:32:04;;;;;;;;;;;;;;;;;;4989308;28;19916;-45
2023/04/15 10:34:30;;;;;;;;;;;;;;;;;;4992358;28;19948;-43
2023/04/15 10:36:56;;;;;;;;;;;;;;;;;;4991527;28;19957;-47
2023/04/15 10:39:23;;;;;;;;;;;;;;;;;;4990257;28;19917;-45
2023/04/15 10:41:49;;;;;;;;;;;;;;;;;;4990330;28;19910;-45
2023/04/15 10:44:15;;;;;;;;;;;;;;;;;;4990102;28;19916;-44
2023/04/15 10:46:41;;;;;;;;;;;;;;;;;;4991349;28;20005;-44
2023/04/15 10:49:07;;;;;;;;;;;;;;;;;;4990113;28;20347;-45
2023/04/15 10:51:33;;;;;;;;;;;;;;;;;;4991247;28;19913;-43
2023/04/15 10:53:59;;;;;;;;;;;;;;;;;;4989930;28;20620;-45
2023/04/15 10:56:25;;;;;;;;;;;;;;;;;;4990624;28;19960;-48
2023/04/15 10:58:51;;;;;;;;;;;;;;;;;;4989550;28;20304;-43
2023/04/15 11:01:17;;;;;;;;;;;;;;;;;;4990727;28;19913;-45
2023/04/15 11:03:44;;;;;;;;;;;;;;;;;;4980721;28;20009;-45
2023/04/15 11:06:10;;;;;;;;;;;;;;;;;;4970267;28;20408;-46
2023/04/15 11:08:36;;;;;;;;;;;;;;;;;;4969958;28;20436;-44
2023/04/15 11:11:02;;;;;;;;;;;;;;;;;;4969472;28;19918;-45
2023/04/15 11:13:30;;;;;;;;;;;;;;;;;;4988794;28;19917;-43
2023/04/15 11:15:57;;;;;;;;;;;;;;;;;;4989851;28;20004;-44
2023/04/15 11:18:23;;;;;;;;;;;;;;;;;;4989481;28;19922;-43
2023/04/15 11:20:53;;;;;;;;;;;;;;;;;;4989789;28;20573;-43
2023/04/15 11:23:20;;;;;;;;;;;;;;;;;;4989897;28;20410;-43
2023/04/15 11:25:47;;;;;;;;;;;;;;;;;;4989641;28;19909;-43
2023/04/15 11:28:13;;;;;;;;;;;;;;;;;;4989695;28;19945;-43
2023/04/15 11:30:39;;;;;;;;;;;;;;;;;;4989591;28;19941;-43
2023/04/15 11:33:05;;;;;;;;;;;;;;;;;;4987968;28;19952;-44
2023/04/15 11:35:31;;;;;;;;;;;;;;;;;;4988301;28;20204;-43
2023/04/15 11:37:57;;;;;;;;;;;;;;;;;;4988145;28;19910;-42
2023/04/15 11:40:23;;;;;;;;;;;;;;;;;;4987527;28;19916;-43
2023/04/15 11:42:49;;;;;;;;;;;;;;;;;;4987761;28;19909;-43
2023/04/15 11:45:15;;;;;;;;;;;;;;;;;;4987880;28;20257;-43
2023/04/15 11:47:41;;;;;;;;;;;;;;;;;;4988009;28;19924;-45
2023/04/15 11:50:07;;;;;;;;;;;;;;;;;;4987945;28;19913;-47
2023/04/15 11:52:32;;;;;;;;;;;;;;;;;;4988074;28;20339;-44
2023/04/15 11:54:58;;;;;;;;;;;;;;;;;;4987470;28;19909;-44
2023/04/15 11:57:24;;;;;;;;;;;;;;;;;;4988175;28;19933;-43
2023/04/15 11:59:50;;;;;;;;;;;;;;;;;;4968997;28;19953;-43
2023/04/15 12:02:16;;;;;;;;;;;;;;;;;;4989259;28;20076;-44
2023/04/15 12:04:42;;;;;;;;;;;;;;;;;;4988910;28;19913;-45
2023/04/15 12:07:08;;;;;;;;;;;;;;;;;;4989423;28;20125;-46
2023/04/15 12:09:34;;;;;;;;;;;;;;;;;;4988635;28;19992;-47
2023/04/15 12:12:00;;;;;;;;;;;;;;;;;;4984588;28;19936;-44
2023/04/15 12:14:29;;;;;;;;;;;;;;;;;;4976491;28;19921;-45
2023/04/15 12:16:56;;;;;;;;;;;;;;;;;;4986351;28;19917;-45
2023/04/15 12:19:23;;;;;;;;;;;;;;;;;;4971889;28;19995;-46
2023/04/15 12:21:49;;;;;;;;;;;;;;;;;;4985394;28;19918;-45
2023/04/15 12:24:15;;;;;;;;;;;;;;;;;;4985027;28;19909;-45
2023/04/15 12:26:41;;;;;;;;;;;;;;;;;;4983826;28;19921;-46
2023/04/15 12:29:07;;;;;;;;;;;;;;;;;;4986138;28;19914;-45
2023/04/15 12:31:33;;;;;;;;;;;;;;;;;;4985511;28;20024;-45
2023/04/15 12:33:59;;;;;;;;;;;;;;;;;;4985388;28;20057;-43
2023/04/15 12:36:27;;;;;;;;;;;;;;;;;;4967448;28;19910;-44
2023/04/15 12:38:53;;;;;;;;;;;;;;;;;;4985038;28;19921;-44
2023/04/15 12:41:18;;;;;;;;;;;;;;;;;;4986101;28;19913;-44
2023/04/15 12:43:45;;;;;;;;;;;;;;;;;;4985591;28;19917;-46
2023/04/15 12:46:11;;;;;;;;;;;;;;;;;;4984825;28;19914;-44
2023/04/15 12:48:38;;;;;;;;;;;;;;;;;;4985377;28;19956;-45
2023/04/15 12:51:04;;;;;;;;;;;;;;;;;;4986236;28;20409;-44
2023/04/15 12:53:30;;;;;;;;;;;;;;;;;;4985685;28;19960;-44
2023/04/15 12:55:56;;;;;;;;;;;;;;;;;;4988627;28;19913;-44
2023/04/15 12:58:22;;;;;;;;;;;;;;;;;;4989017;28;19968;-44
2023/04/15 13:00:48;;;;;;;;;;;;;;;;;;4990117;28;19913;-44
2023/04/15 13:03:14;;;;;;;;;;;;;;;;;;4989580;28;20017;-44
2023/04/15 13:05:40;;;;;;;;;;;;;;;;;;4989101;28;20301;-44
2023/04/15 13:08:06;;;;;;;;;;;;;;;;;;4987025;28;19920;-44
2023/04/15 13:10:32;;;;;;;;;;;;;;;;;;4988353;28;20427;-45
2023/04/15 13:12:58;;;;;;;;;;;;;;;;;;4985043;28;20384;-45
2023/04/15 13:15:24;;;;;;;;;;;;;;;;;;4966979;28;19969;-45
2023/04/15 13:17:50;;;;;;;;;;;;;;;;;;4969628;28;19968;-47
2023/04/15 13:20:16;;;;;;;;;;;;;;;;;;4986901;28;19918;-45
2023/04/15 13:22:42;;;;;;;;;;;;;;;;;;4987599;28;19910;-45
2023/04/15 13:25:08;;;;;;;;;;;;;;;;;;4987176;28;19921;-45
2023/04/15 13:27:34;;;;;;;;;;;;;;;;;;4987142;28;20289;-45
2023/04/15 13:30:02;;;;;;;;;;;;;;;;;;4986371;28;19945;-45
2023/04/15 13:32:28;;;;;;;;;;;;;;;;;;4985958;28;19921;-45
2023/04/15 13:34:55;;;;;;;;;;;;;;;;;;4969117;28;20321;-45
2023/04/15 13:37:21;;;;;;;;;;;;;;;;;;4986345;28;20323;-45
2023/04/15 13:39:46;;;;;;;;;;;;;;;;;;4986206;28;20032;-46
2023/04/15 13:42:12;;;;;;;;;;;;;;;;;;4986432;28;19910;-45
2023/04/15 13:44:38;;;;;;;;;;;;;;;;;;4985315;28;19921;-45
2023/04/15 13:47:05;;;;;;;;;;;;;;;;;;4969127;28;19917;-46
2023/04/15 13:49:31;;;;;;;;;;;;;;;;;;4969571;28;20036;-46
2023/04/15 13:51:57;;;;;;;;;;;;;;;;;;4986917;28;19957;-44
2023/04/15 13:54:24;;;;;;;;;;;;;;;;;;4968193;28;19910;-45
2023/04/15 13:56:50;;;;;;;;;;;;;;;;;;4986922;28;19916;-45
2023/04/15 13:59:16;;;;;;;;;;;;;;;;;;4986612;28;19914;-47
2023/04/15 14:01:42;;;;;;;;;;;;;;;;;;4985778;28;20441;-46
2023/04/15 14:04:09;;;;;;;;;;;;;;;;;;4982989;28;20313;-45
2023/04/15 14:06:35;;;;;;;;;;;;;;;;;;4967253;28;20352;-45
2023/04/15 14:09:01;;;;;;;;;;;;;;;;;;4977975;28;19996;-44
2023/04/15 14:11:27;;;;;;;;;;;;;;;;;;4986456;28;19917;-46
2023/04/15 14:13:53;;;;;;;;;;;;;;;;;;4986329;28;19909;-46
2023/04/15 14:16:19;;;;;;;;;;;;;;;;;;4969121;28;19917;-48
2023/04/15 14:18:46;;;;;;;;;;;;;;;;;;4968570;28;19922;-45
2023/04/15 14:21:12;;;;;;;;;;;;;;;;;;4977754;28;19913;-49
2023/04/15 14:23:38;;;;;;;;;;;;;;;;;;4986025;28;19914;-45
2023/04/15 14:26:05;;;;;;;;;;;;;;;;;;4987105;28;20001;-44
2023/04/15 14:28:31;;;;;;;;;;;;;;;;;;4981172;28;19910;-44
2023/04/15 14:30:58;;;;;;;;;;;;;;;;;;4967062;28;19973;-46
2023/04/15 14:33:24;;;;;;;;;;;;;;;;;;4966933;28;20027;-45
2023/04/15 14:35:50;;;;;;;;;;;;;;;;;;4983265;28;19910;-48
2023/04/15 14:38:16;;;;;;;;;;;;;;;;;;4986404;28;20297;-45
2023/04/15 14:40:42;;;;;;;;;;;;;;;;;;4983776;28;19956;-45
2023/04/15 14:43:09;;;;;;;;;;;;;;;;;;4985702;28;20005;-44
2023/04/15 14:45:35;;;;;;;;;;;;;;;;;;4986845;28;19988;-46
2023/04/15 14:48:02;;;;;;;;;;;;;;;;;;4986651;28;19909;-44
2023/04/15 14:50:28;;;;;;;;;;;;;;;;;;4967763;28;19914;-44
2023/04/15 14:52:53;;;;;;;;;;;;;;;;;;4986043;28;19996;-44
2023/04/15 14:55:19;;;;;;;;;;;;;;;;;;4968668;28;19918;-44
2023/04/15 14:57:45;;;;;;;;;;;;;;;;;;4992519;28;19910;-44
2023/04/15 15:00:11;;;;;;;;;;;;;;;;;;4986297;28;19936;-44
2023/04/15 15:02:37;;;;;;;;;;;;;;;;;;4986754;28;19914;-44
2023/04/15 15:05:04;;;;;;;;;;;;;;;;;;4985151;28;19952;-45
2023/04/15 15:07:30;;;;;;;;;;;;;;;;;;4986951;28;19967;-45
2023/04/15 15:09:56;;;;;;;;;;;;;;;;;;4968777;28;19982;-44
2023/04/15 15:12:22;;;;;;;;;;;;;;;;;;4986932;28;19917;-43
2023/04/15 15:14:49;;;;;;;;;;;;;;;;;;4987684;28;20405;-45
2023/04/15 15:17:15;;;;;;;;;;;;;;;;;;4987296;28;20000;-45
2023/04/15 15:19:42;;;;;;;;;;;;;;;;;;4985398;28;20352;-46
2023/04/15 15:22:08;;;;;;;;;;;;;;;;;;4986217;28;19913;-44
2023/04/15 15:24:34;;;;;;;;;;;;;;;;;;4981926;28;20380;-44
2023/04/15 15:27:01;;;;;;;;;;;;;;;;;;4986204;28;19914;-44
2023/04/15 15:29:28;;;;;;;;;;;;;;;;;;4985219;28;20281;-43
2023/04/15 15:31:53;;;;;;;;;;;;;;;;;;4969980;28;19906;-43
2023/04/15 15:34:19;;;;;;;;;;;;;;;;;;4988456;28;19912;-44
2023/04/15 15:36:46;;;;;;;;;;;;;;;;;;4989261;28;19920;-43
2023/04/15 15:39:12;;;;;;;;;;;;;;;;;;4987571;28;19921;-45
2023/04/15 15:41:38;;;;;;;;;;;;;;;;;;4987394;28;19913;-46
2023/04/15 15:44:04;;;;;;;;;;;;;;;;;;4976697;28;19906;-47
2023/04/15 15:46:30;;;;;;;;;;;;;;;;;;4969506;28;20012;-47
2023/04/15 15:48:56;;;;;;;;;;;;;;;;;;5006825;28;19909;-47
2023/04/15 15:51:22;;;;;;;;;;;;;;;;;;5000677;28;19936;-45
2023/04/15 15:53:48;;;;;;;;;;;;;;;;;;4986774;28;19918;-44
2023/04/15 15:56:14;;;;;;;;;;;;;;;;;;4969202;28;19913;-44
2023/04/15 15:58:40;;;;;;;;;;;;;;;;;;4969235;28;19917;-44
2023/04/15 16:01:06;;;;;;;;;;;;;;;;;;4974683;28;19913;-45
2023/04/15 16:03:31;;;;;;;;;;;;;;;;;;4988720;28;19909;-44
2023/04/15 16:05:57;;;;;;;;;;;;;;;;;;4982621;28;19914;-45
2023/04/15 16:08:23;;;;;;;;;;;;;;;;;;4980762;28;19956;-44
2023/04/15 16:10:49;;;;;;;;;;;;;;;;;;5000292;28;19935;-44
2023/04/15 16:13:15;;;;;;;;;;;;;;;;;;5022482;28;19913;-47
2023/04/15 16:15:41;;;;;;;;;;;;;;;;;;5003590;28;19916;-44
2023/04/15 16:18:07;;;;;;;;;;;;;;;;;;5008762;28;20012;-44
2023/04/15 16:20:33;;;;;;;;;;;;;;;;;;5010070;28;19909;-44
2023/04/15 16:23:00;;;;;;;;;;;;;;;;;;5010315;28;19910;-45
2023/04/15 16:25:26;;;;;;;;;;;;;;;;;;5002129;28;19975;-46
2023/04/15 16:27:52;;;;;;;;;;;;;;;;;;5006822;28;20029;-44
2023/04/15 16:30:18;;;;;;;;;;;;;;;;;;5009848;28;20023;-44
2023/04/15 16:32:44;;;;;;;;;;;;;;;;;;4982625;28;19909;-43
2023/04/15 16:35:10;;;;;;;;;;;;;;;;;;5007817;28;20044;-45
2023/04/15 16:37:36;;;;;;;;;;;;;;;;;;5010691;28;20478;-47
2023/04/15 16:40:03;;;;;;;;;;;;;;;;;;5009296;28;20014;-45
2023/04/15 16:42:29;;;;;;;;;;;;;;;;;;5010510;28;19912;-44
2023/04/15 16:44:55;;;;;;;;;;;;;;;;;;5010237;28;19909;-45
2023/04/15 16:47:21;;;;;;;;;;;;;;;;;;5010750;28;20390;-46
2023/04/15 16:49:47;;;;;;;;;;;;;;;;;;5010213;28;19999;-46
2023/04/15 16:52:13;;;;;;;;;;;;;;;;;;5010140;28;19933;-45
2023/04/15 16:54:41;;;;;;;;;;;;;;;;;;5010492;28;19905;-46
2023/04/15 16:57:07;;;;;;;;;;;;;;;;;;4992893;28;19909;-48
2023/04/15 16:59:33;;;;;;;;;;;;;;;;;;5009951;28;19971;-45
2023/04/15 17:02:00;;;;;;;;;;;;;;;;;;4991672;28;19935;-45
2023/04/15 17:04:26;;;;;;;;;;;;;;;;;;5000310;28;19914;-47
2023/04/15 17:06:52;;;;;;;;;;;;;;;;;;4998248;28;19940;-44
2023/04/15 17:09:17;;;;;;;;;;;;;;;;;;4990509;28;19909;-45
2023/04/15 17:11:44;;;;;;;;;;;;;;;;;;4994815;28;20008;-45
2023/04/15 17:14:10;;;;;;;;;;;;;;;;;;4971270;28;20324;-46
2023/04/15 17:16:36;;;;;;;;;;;;;;;;;;4988922;28;19917;-45
2023/04/15 17:19:02;;;;;;;;;;;;;;;;;;4988536;28;20300;-45
2023/04/15 17:21:28;;;;;;;;;;;;;;;;;;4978796;28;19920;-45
2023/04/15 17:23:54;;;;;;;;;;;;;;;;;;4970287;28;20399;-49
2023/04/15 17:26:20;;;;;;;;;;;;;;;;;;4985686;28;19909;-45
2023/04/15 17:28:46;;;;;;;;;;;;;;;;;;4989260;28;19916;-45
2023/04/15 17:31:12;;;;;;;;;;;;;;;;;;4988729;28;19913;-47
2023/04/15 17:33:38;;;;;;;;;;;;;;;;;;4988521;28;19918;-49
2023/04/15 17:36:04;;;;;;;;;;;;;;;;;;4988673;28;19975;-45
2023/04/15 17:38:30;;;;;;;;;;;;;;;;;;4989278;28;20016;-47
2023/04/15 17:40:57;;;;;;;;;;;;;;;;;;4994032;28;20008;-45
2023/04/15 17:43:23;;;;;;;;;;;;;;;;;;5008426;28;19909;-45
2023/04/15 17:45:49;;;;;;;;;;;;;;;;;;5008899;28;19959;-44
2023/04/15 17:48:15;;;;;;;;;;;;;;;;;;4982927;28;19980;-45
2023/04/15 17:50:41;;;;;;;;;;;;;;;;;;4987827;28;19917;-43
2023/04/15 17:53:07;;;;;;;;;;;;;;;;;;4988012;28;19959;-45
2023/04/15 17:55:33;;;;;;;;;;;;;;;;;;4970674;28;19981;-43
2023/04/15 17:57:59;;;;;;;;;;;;;;;;;;4987715;28;19910;-45
2023/04/15 18:00:25;;;;;;;;;;;;;;;;;;4985479;28;19917;-44
2023/04/15 18:02:51;;;;;;;;;;;;;;;;;;4986009;28;19920;-44
2023/04/15 18:05:18;;;;;;;;;;;;;;;;;;4969987;28;19945;-43
2023/04/15 18:07:44;;;;;;;;;;;;;;;;;;4987364;28;19915;-44
2023/04/15 18:10:10;;;;;;;;;;;;;;;;;;4968684;28;20396;-44
2023/04/15 18:12:36;;;;;;;;;;;;;;;;;;4987804;28;19948;-44
2023/04/15 18:15:03;;;;;;;;;;;;;;;;;;4984854;28;19960;-43
2023/04/15 18:17:29;;;;;;;;;;;;;;;;;;4987308;28;20970;-45
2023/04/15 18:19:55;;;;;;;;;;;;;;;;;;4987317;28;19913;-44
2023/04/15 18:22:21;;;;;;;;;;;;;;;;;;4987309;28;20700;-47
2023/04/15 18:24:48;;;;;;;;;;;;;;;;;;4984590;28;19914;-44
2023/04/15 18:27:14;;;;;;;;;;;;;;;;;;4984395;28;20009;-44
2023/04/15 18:29:41;;;;;;;;;;;;;;;;;;4972276;28;20023;-46
2023/04/15 18:32:07;;;;;;;;;;;;;;;;;;4986322;28;19910;-45
2023/04/15 18:34:33;;;;;;;;;;;;;;;;;;4986504;28;20047;-45
2023/04/15 18:36:59;;;;;;;;;;;;;;;;;;4985911;28;19918;-44
2023/04/15 18:39:25;;;;;;;;;;;;;;;;;;4967574;28;19956;-47
2023/04/15 18:41:51;;;;;;;;;;;;;;;;;;4985803;28;19909;-46
2023/04/15 18:44:17;;;;;;;;;;;;;;;;;;4985474;28;19913;-45
2023/04/15 18:46:43;;;;;;;;;;;;;;;;;;4979718;28;20363;-45
2023/04/15 18:49:10;;;;;;;;;;;;;;;;;;4984759;28;20013;-44
2023/04/15 18:51:35;;;;;;;;;;;;;;;;;;4985560;28;20020;-46
2023/04/15 18:54:02;;;;;;;;;;;;;;;;;;4986029;28;20001;-47
2023/04/15 18:56:28;;;;;;;;;;;;;;;;;;4985364;28;20004;-44
2023/04/15 18:58:54;;;;;;;;;;;;;;;;;;4985333;28;20024;-44
2023/04/15 19:01:21;;;;;;;;;;;;;;;;;;4985221;28;19916;-46
2023/04/15 19:03:47;;;;;;;;;;;;;;;;;;4985455;28;20281;-47
2023/04/15 19:06:13;;;;;;;;;;;;;;;;;;4984671;28;19917;-45
2023/04/15 19:08:40;;;;;;;;;;;;;;;;;;4985209;28;19953;-44
2023/04/15 19:11:06;;;;;;;;;;;;;;;;;;4984984;28;20328;-47
2023/04/15 19:13:32;;;;;;;;;;;;;;;;;;4985996;28;19913;-45
2023/04/15 19:15:57;;;;;;;;;;;;;;;;;;4985514;28;20353;-45
2023/04/15 19:18:25;;;;;;;;;;;;;;;;;;4973787;28;19910;-46
2023/04/15 19:20:51;;;;;;;;;;;;;;;;;;4966812;28;19956;-46
2023/04/15 19:23:17;;;;;;;;;;;;;;;;;;4984234;28;20778;-45
2023/04/15 19:25:43;;;;;;;;;;;;;;;;;;4985072;28;20397;-46
2023/04/15 19:28:09;;;;;;;;;;;;;;;;;;4985037;28;19921;-45
2023/04/15 19:30:35;;;;;;;;;;;;;;;;;;4984964;28;19953;-44
2023/04/15 19:33:01;;;;;;;;;;;;;;;;;;4983844;28;19921;-44
2023/04/15 19:35:28;;;;;;;;;;;;;;;;;;4984551;28;19917;-45
2023/04/15 19:37:55;;;;;;;;;;;;;;;;;;4985163;28;19917;-45
2023/04/15 19:40:20;;;;;;;;;;;;;;;;;;4966881;28;20070;-45
2023/04/15 19:42:46;;;;;;;;;;;;;;;;;;4985476;28;20475;-45
2023/04/15 19:45:13;;;;;;;;;;;;;;;;;;4983754;28;19976;-44
2023/04/15 19:47:39;;;;;;;;;;;;;;;;;;4985440;28;19914;-45
2023/04/15 19:50:06;;;;;;;;;;;;;;;;;;4966142;28;19909;-45
2023/04/15 19:52:31;;;;;;;;;;;;;;;;;;4985245;28;19909;-44
2023/04/15 19:54:57;;;;;;;;;;;;;;;;;;4997192;28;19918;-47
2023/04/15 19:57:23;;;;;;;;;;;;;;;;;;4985092;28;20399;-48
2023/04/15 19:59:50;;;;;;;;;;;;;;;;;;4985076;28;19917;-47
2023/04/15 20:02:17;;;;;;;;;;;;;;;;;;4984428;28;19953;-47
2023/04/15 20:04:43;;;;;;;;;;;;;;;;;;4985577;28;19967;-46
2023/04/15 20:07:09;;;;;;;;;;;;;;;;;;4986390;28;20007;-47
2023/04/15 20:09:36;;;;;;;;;;;;;;;;;;4986309;28;20310;-46
2023/04/15 20:12:03;;;;;;;;;;;;;;;;;;4979687;28;19914;-46
2023/04/15 20:14:29;;;;;;;;;;;;;;;;;;4988432;28;19914;-46
2023/04/15 20:16:55;;;;;;;;;;;;;;;;;;4970976;28;19920;-45
2023/04/15 20:19:21;;;;;;;;;;;;;;;;;;4987544;28;19913;-46
2023/04/15 20:21:46;;;;;;;;;;;;;;;;;;4983986;28;20017;-48
2023/04/15 20:24:12;;;;;;;;;;;;;;;;;;4970693;28;20003;-45
2023/04/15 20:26:38;;;;;;;;;;;;;;;;;;4988099;28;19924;-46
2023/04/15 20:29:04;;;;;;;;;;;;;;;;;;4984333;28;19941;-44
2023/04/15 20:31:30;;;;;;;;;;;;;;;;;;4987253;28;19960;-47
2023/04/15 20:33:56;;;;;;;;;;;;;;;;;;4987923;28;20402;-45
2023/04/15 20:36:22;;;;;;;;;;;;;;;;;;4987712;28;20225;-47
2023/04/15 20:38:49;;;;;;;;;;;;;;;;;;4988736;28;19914;-47
2023/04/15 20:41:15;;;;;;;;;;;;;;;;;;4984165;28;19913;-46
2023/04/15 20:43:41;;;;;;;;;;;;;;;;;;4988265;28;19972;-45
2023/04/15 20:46:07;;;;;;;;;;;;;;;;;;4988021;28;19916;-46
2023/04/15 20:48:33;;;;;;;;;;;;;;;;;;4988996;28;19945;-45
2023/04/15 20:50:58;;;;;;;;;;;;;;;;;;4988041;28;19909;-45
2023/04/15 20:53:24;;;;;;;;;;;;;;;;;;4987629;28;20433;-45
2023/04/15 20:55:50;;;;;;;;;;;;;;;;;;4987899;28;19964;-47
2023/04/15 20:58:16;;;;;;;;;;;;;;;;;;4987984;28;20340;-48
2023/04/15 21:00:44;;;;;;;;;;;;;;;;;;4988116;28;19905;-46
2023/04/15 21:03:10;;;;;;;;;;;;;;;;;;4987242;28;19917;-47
2023/04/15 21:05:37;;;;;;;;;;;;;;;;;;4988843;28;20395;-45
2023/04/15 21:08:04;;;;;;;;;;;;;;;;;;4987504;28;19910;-46
2023/04/15 21:10:34;;;;;;;;;;;;;;;;;;4988327;28;19921;-48
2023/04/15 21:12:59;;;;;;;;;;;;;;;;;;4988694;28;19952;-46
2023/04/15 21:15:26;;;;;;;;;;;;;;;;;;4970460;28;19913;-46
2023/04/15 21:17:52;;;;;;;;;;;;;;;;;;4988055;28;19909;-45
2023/04/15 21:20:18;;;;;;;;;;;;;;;;;;4969941;28;19952;-45
2023/04/15 21:22:44;;;;;;;;;;;;;;;;;;4988022;28;20009;-47
2023/04/15 21:25:10;;;;;;;;;;;;;;;;;;4970101;28;19917;-47
2023/04/15 21:27:36;;;;;;;;;;;;;;;;;;4987744;28;19905;-48
2023/04/15 21:30:02;;;;;;;;;;;;;;;;;;4987571;28;20415;-46
2023/04/15 21:32:29;;;;;;;;;;;;;;;;;;4988384;28;20318;-45
2023/04/15 21:34:56;;;;;;;;;;;;;;;;;;4987582;28;20076;-44
2023/04/15 21:37:22;;;;;;;;;;;;;;;;;;4987408;28;19964;-44
2023/04/15 21:39:49;;;;;;;;;;;;;;;;;;4969898;28;20379;-46
2023/04/15 21:42:15;;;;;;;;;;;;;;;;;;4986958;28;19909;-44
2023/04/15 21:44:41;;;;;;;;;;;;;;;;;;4987458;28;19912;-46